createdAt,value
2023-02-09T00:01:27.636Z,101422.73
2023-02-09T00:03:55.938Z,101423.54
2023-02-09T00:06:24.392Z,101421.17
2023-02-09T00:08:52.852Z,101418.39
2023-02-09T00:11:46.688Z,101420.45
2023-02-09T00:14:16.610Z,101417.25
2023-02-09T00:16:45.889Z,101413.17
2023-02-09T00:19:14.305Z,101408.40
2023-02-09T00:21:42.192Z,101405.57
2023-02-09T00:24:10.995Z,101398.52
2023-02-09T00:26:39.227Z,101395.83
2023-02-09T00:29:08.143Z,101390.70
2023-02-09T00:31:36.281Z,101392.08
2023-02-09T00:34:05.922Z,101391.35
2023-02-09T00:36:34.070Z,101390.29
2023-02-09T00:39:02.441Z,101389.55
2023-02-09T00:41:49.540Z,101390.55
2023-02-09T00:44:17.544Z,101386.83
2023-02-09T00:46:46.052Z,101382.02
2023-02-09T00:49:15.128Z,101378.91
2023-02-09T00:51:43.004Z,101383.29
2023-02-09T00:54:11.037Z,101379.52
2023-02-09T00:56:40.588Z,101377.55
2023-02-09T00:59:08.580Z,101377.71
2023-02-09T01:01:36.618Z,101374.46
2023-02-09T01:04:05.058Z,101375.61
2023-02-09T01:06:33.809Z,101374.05
2023-02-09T01:09:02.345Z,101376.92
2023-02-09T01:11:30.500Z,101369.62
2023-02-09T01:13:59.454Z,101371.21
2023-02-09T01:16:31.779Z,101370.77
2023-02-09T01:19:01.409Z,101367.86
2023-02-09T01:21:30.765Z,101363.67
2023-02-09T01:23:59.685Z,101363.16
2023-02-09T01:26:27.941Z,101357.99
2023-02-09T01:28:56.330Z,101359.17
2023-02-09T01:31:28.253Z,101359.86
2023-02-09T01:33:57.326Z,101362.70
2023-02-09T01:36:29.004Z,101360.70
2023-02-09T01:38:58.062Z,101357.66
2023-02-09T01:41:26.175Z,101356.84
2023-02-09T01:44:05.948Z,101354.87
2023-02-09T01:46:35.082Z,101348.03
2023-02-09T01:49:07.614Z,101344.38
2023-02-09T01:51:49.081Z,101342.21
2023-02-09T01:54:20.777Z,101338.14
2023-02-09T01:56:54.728Z,101337.52
2023-02-09T01:59:22.930Z,101334.95
2023-02-09T02:01:52.777Z,101333.84
2023-02-09T02:04:21.307Z,101334.98
2023-02-09T02:06:54.914Z,101333.98
2023-02-09T02:09:22.849Z,101328.32
2023-02-09T02:11:50.864Z,101330.41
2023-02-09T02:14:33.168Z,101332.40
2023-02-09T02:17:10.624Z,101331.83
2023-02-09T02:20:05.045Z,101332.43
2023-02-09T02:22:44.776Z,101333.54
2023-02-09T02:25:22.618Z,101331.89
2023-02-09T02:28:05.944Z,101331.23
2023-02-09T02:30:36.859Z,101331.42
2023-02-09T02:33:12.047Z,101326.96
2023-02-09T02:35:44.408Z,101323.23
2023-02-09T02:38:17.571Z,101321.90
2023-02-09T02:40:54.835Z,101320.66
2023-02-09T02:43:43.758Z,101316.93
2023-02-09T02:46:20.824Z,101316.96
2023-02-09T02:48:54.934Z,101319.34
2023-02-09T02:51:30.149Z,101321.23
2023-02-09T02:54:00.591Z,101315.77
2023-02-09T02:56:40.928Z,101312.90
2023-02-09T02:59:12.940Z,101314.10
2023-02-09T03:01:47.515Z,101317.38
2023-02-09T03:04:15.392Z,101313.33
2023-02-09T03:06:43.297Z,101310.13
2023-02-09T03:09:11.213Z,101305.63
2023-02-09T03:11:52.268Z,101308.70
2023-02-09T03:14:35.937Z,101307.92
2023-02-09T03:17:30.480Z,101305.05
2023-02-09T03:20:10.759Z,101302.63
2023-02-09T03:22:41.774Z,101298.77
2023-02-09T03:25:16.014Z,101289.84
2023-02-09T03:28:07.480Z,101286.48
2023-02-09T03:30:35.704Z,101287.39
2023-02-09T03:33:04.202Z,101283.78
2023-02-09T03:35:39.074Z,101282.34
2023-02-09T03:38:07.424Z,101285.13
2023-02-09T03:40:36.414Z,101283.94
2023-02-09T03:43:04.379Z,101286.23
2023-02-09T03:45:32.228Z,101289.02
2023-02-09T03:48:02.268Z,101289.64
2023-02-09T03:50:32.404Z,101286.27
2023-02-09T03:53:00.884Z,101283.52
2023-02-09T03:55:31.146Z,101287.59
2023-02-09T03:57:59.772Z,101282.09
2023-02-09T04:00:27.770Z,101285.89
2023-02-09T04:02:56.543Z,101285.70
2023-02-09T04:05:24.385Z,101286.15
2023-02-09T04:07:55.938Z,101286.92
2023-02-09T04:10:24.190Z,101290.21
2023-02-09T04:12:53.002Z,101294.09
2023-02-09T04:15:21.755Z,101293.92
2023-02-09T04:17:50.860Z,101298.10
2023-02-09T04:20:19.151Z,101298.82
2023-02-09T04:22:48.026Z,101294.80
2023-02-09T04:25:16.009Z,101287.99
2023-02-09T04:27:43.985Z,101287.63
2023-02-09T04:30:12.681Z,101283.12
2023-02-09T04:32:40.607Z,101281.30
2023-02-09T04:35:08.523Z,101279.47
2023-02-09T04:37:36.908Z,101270.81
2023-02-09T04:40:07.650Z,101269.27
2023-02-09T04:42:37.258Z,101261.51
2023-02-09T04:45:06.010Z,101259.92
2023-02-09T04:47:34.605Z,101261.09
2023-02-09T04:50:02.686Z,101263.93
2023-02-09T04:52:30.715Z,101266.70
2023-02-09T04:54:58.718Z,101270.69
2023-02-09T04:57:45.227Z,101267.14
2023-02-09T05:00:13.914Z,101266.18
2023-02-09T05:02:42.638Z,101263.81
2023-02-09T05:05:10.654Z,101260.65
2023-02-09T05:07:39.254Z,101265.56
2023-02-09T05:10:07.379Z,101262.37
2023-02-09T08:09:57.106Z,101247.58
2023-02-09T08:12:47.013Z,101249.09
2023-02-09T08:15:15.884Z,101246.71
2023-02-09T08:17:44.220Z,101245.71
2023-02-09T08:20:15.279Z,101244.59
2023-02-09T08:22:46.641Z,101244.83
2023-02-09T08:25:19.446Z,101245.17
2023-02-09T08:27:47.723Z,101240.80
2023-02-09T08:30:19.152Z,101237.77
2023-02-09T08:32:50.981Z,101237.06
2023-02-09T08:35:18.948Z,101229.99
2023-02-09T08:37:47.057Z,101229.02
2023-02-09T08:40:15.440Z,101231.48
2023-02-09T08:42:43.708Z,101232.01
2023-02-09T08:45:12.574Z,101234.10
2023-02-09T08:47:41.552Z,101232.84
2023-02-09T08:50:10.969Z,101230.14
2023-02-09T08:52:39.635Z,101230.17
2023-02-09T08:55:08.782Z,101232.83
2023-02-09T08:57:44.120Z,101232.33
2023-02-09T09:00:14.355Z,101231.25
2023-02-09T09:02:42.379Z,101232.05
2023-02-09T09:05:10.242Z,101229.52
2023-02-09T09:07:38.668Z,101224.50
2023-02-09T09:10:09.013Z,101222.83
2023-02-09T09:12:37.547Z,101216.70
2023-02-09T09:15:05.809Z,101214.73
2023-02-09T09:17:34.914Z,101214.58
2023-02-09T09:20:03.323Z,101207.42
2023-02-09T09:22:32.275Z,101196.14
2023-02-09T09:25:00.199Z,101189.66
2023-02-09T09:27:28.541Z,101191.04
2023-02-09T09:29:56.462Z,101182.68
2023-02-09T09:32:25.629Z,101178.84
2023-02-09T09:34:54.863Z,101176.38
2023-02-09T09:37:23.435Z,101177.87
2023-02-09T09:39:51.851Z,101174.52
2023-02-09T09:42:32.020Z,101170.63
2023-02-09T09:45:00.316Z,101170.55
2023-02-09T09:47:40.011Z,101166.55
2023-02-09T09:50:14.624Z,101165.48
2023-02-09T09:52:47.995Z,101163.36
2023-02-09T09:55:27.155Z,101157.20
2023-02-09T09:57:56.764Z,101149.20
2023-02-09T10:00:34.776Z,101146.68
2023-02-09T10:03:03.195Z,101145.54
2023-02-09T10:05:37.856Z,101137.14
2023-02-09T10:08:17.685Z,101130.78
2023-02-09T10:10:47.494Z,101126.09
2023-02-09T10:13:23.205Z,101123.98
2023-02-09T10:15:55.487Z,101120.97
2023-02-09T10:18:25.559Z,101117.30
2023-02-09T10:21:02.790Z,101117.58
2023-02-09T10:23:45.354Z,101112.94
2023-02-09T10:26:17.223Z,101103.05
2023-02-09T10:28:48.209Z,101094.98
2023-02-09T10:31:33.640Z,101093.41
2023-02-09T10:34:16.893Z,101090.79
2023-02-09T10:36:55.752Z,101088.13
2023-02-09T10:39:31.301Z,101079.92
2023-02-09T10:42:12.395Z,101078.33
2023-02-09T10:44:40.489Z,101077.25
2023-02-09T10:47:24.076Z,101078.70
2023-02-09T10:50:08.296Z,101079.11
2023-02-09T10:52:37.674Z,101073.98
2023-02-09T10:55:16.318Z,101075.09
2023-02-09T10:57:44.304Z,101075.46
2023-02-09T11:00:15.431Z,101072.63
2023-02-09T11:02:43.590Z,101071.04
2023-02-09T11:05:21.433Z,101067.46
2023-02-09T11:07:52.464Z,101060.48
2023-02-09T11:10:20.819Z,101059.66
2023-02-09T11:12:49.097Z,101054.98
2023-02-09T11:15:22.180Z,101050.27
2023-02-09T11:17:53.276Z,101046.32
2023-02-09T11:20:32.157Z,101041.44
2023-02-09T11:23:06.950Z,101040.73
2023-02-09T11:25:55.071Z,101038.67
2023-02-09T11:28:44.690Z,101036.36
2023-02-09T11:31:15.552Z,101033.03
2023-02-09T11:34:11.220Z,101029.33
2023-02-09T11:36:39.366Z,101022.30
2023-02-09T11:39:29.991Z,101018.77
2023-02-09T11:42:30.756Z,101012.13
2023-02-09T11:45:11.306Z,101014.17
2023-02-09T11:48:04.031Z,101012.48
2023-02-09T11:50:42.391Z,101010.09
2023-02-09T11:53:35.923Z,101003.52
2023-02-09T11:56:05.884Z,100994.14
2023-02-09T11:59:12.063Z,100992.02
2023-02-09T12:01:54.800Z,100988.09
2023-02-09T12:04:48.462Z,100985.84
2023-02-09T12:07:48.847Z,100984.51
2023-02-09T12:10:26.081Z,100980.60
2023-02-09T12:13:50.399Z,100983.60
2023-02-09T12:16:21.398Z,100978.69
2023-02-09T12:18:49.385Z,100978.77
2023-02-09T12:21:38.318Z,100976.52
2023-02-09T12:24:07.198Z,100978.60
2023-02-09T12:26:37.232Z,100978.51
2023-02-09T12:29:25.859Z,100975.41
2023-02-09T12:32:09.055Z,100970.93
2023-02-09T12:34:49.682Z,100969.73
2023-02-09T12:37:29.063Z,100967.84
2023-02-09T12:40:06.482Z,100966.60
2023-02-09T12:43:01.722Z,100965.15
2023-02-09T12:45:33.055Z,100965.52
2023-02-09T12:48:09.227Z,100960.70
2023-02-09T12:50:45.655Z,100960.70
2023-02-09T12:53:22.694Z,100956.15
2023-02-09T16:29:15.493Z,100862.89
2023-02-09T16:31:43.486Z,100862.23
2023-02-09T16:34:15.346Z,100860.45
2023-02-09T16:36:43.436Z,100861.64
2023-02-09T16:39:19.234Z,100860.56
2023-02-09T16:41:47.801Z,100859.73
2023-02-09T16:44:26.518Z,100858.62
2023-02-09T16:46:56.192Z,100860.63
2023-02-09T16:49:30.193Z,100862.48
2023-02-09T16:52:02.137Z,100862.18
2023-02-09T16:54:30.795Z,100856.04
2023-02-09T16:56:58.761Z,100856.06
2023-02-09T16:59:27.004Z,100853.52
2023-02-09T17:01:54.971Z,100852.78
2023-02-09T17:04:22.939Z,100852.91
2023-02-09T17:06:52.949Z,100849.98
2023-02-09T17:09:20.889Z,100845.27
2023-02-09T17:11:49.240Z,100843.27
2023-02-09T17:14:17.309Z,100840.39
2023-02-09T17:16:49.540Z,100840.40
2023-02-09T17:19:18.286Z,100844.22
2023-02-09T17:21:46.565Z,100837.98
2023-02-09T17:24:15.835Z,100838.64
2023-02-09T17:26:44.028Z,100837.74
2023-02-09T17:29:12.310Z,100837.25
2023-02-09T17:31:52.396Z,100836.44
2023-02-09T17:34:27.237Z,100836.88
2023-02-09T17:36:56.480Z,100836.67
2023-02-09T17:39:24.750Z,100837.38
2023-02-09T17:41:52.721Z,100834.22
2023-02-09T17:44:44.573Z,100832.00
2023-02-09T17:47:17.897Z,100831.92
2023-02-09T17:49:46.343Z,100829.55
2023-02-09T17:52:18.102Z,100829.09
2023-02-09T17:54:46.198Z,100822.63
2023-02-09T17:57:16.501Z,100822.27
2023-02-09T17:59:44.623Z,100815.91
2023-02-09T18:02:15.536Z,100817.13
2023-02-09T18:04:43.845Z,100823.85
2023-02-09T18:07:12.954Z,100814.43
2023-02-09T18:09:41.254Z,100810.62
2023-02-09T18:12:19.804Z,100810.20
2023-02-09T18:14:47.892Z,100809.30
2023-02-09T18:17:17.196Z,100807.83
2023-02-09T18:19:45.401Z,100812.77
2023-02-09T18:22:16.935Z,100812.30
2023-02-09T18:24:44.819Z,100811.65
2023-02-09T18:27:17.775Z,100813.20
2023-02-09T18:29:45.855Z,100808.73
2023-02-09T18:32:15.518Z,100808.00
2023-02-09T18:34:44.063Z,100802.80
2023-02-09T18:37:13.973Z,100805.30
2023-02-09T18:39:46.789Z,100806.08
2023-02-09T18:42:16.100Z,100807.98
2023-02-09T18:44:44.046Z,100808.38
2023-02-09T18:47:12.227Z,100811.70
2023-02-09T18:49:40.603Z,100812.30
2023-02-09T18:52:08.926Z,100809.85
2023-02-09T18:54:37.848Z,100806.45
2023-02-09T18:57:05.822Z,100801.98
2023-02-09T18:59:33.966Z,100803.13
2023-02-09T19:02:02.777Z,100798.02
2023-02-09T19:04:31.365Z,100794.65
2023-02-09T19:07:06.388Z,100793.30
2023-02-09T19:09:39.163Z,100792.38
2023-02-09T19:12:10.834Z,100788.09
2023-02-09T19:14:42.399Z,100781.27
2023-02-09T19:17:15.986Z,100776.34
2023-02-09T19:19:44.979Z,100773.25
2023-02-09T19:22:17.947Z,100770.63
2023-02-09T19:24:47.519Z,100766.90
2023-02-09T19:27:17.344Z,100767.23
2023-02-09T19:29:45.536Z,100764.90
2023-02-09T19:32:14.124Z,100762.35
2023-02-09T19:34:43.449Z,100760.79
2023-02-09T19:37:12.576Z,100759.04
2023-02-09T19:39:41.752Z,100757.40
2023-02-09T19:42:10.320Z,100758.91
2023-02-09T19:44:38.512Z,100749.66
2023-02-09T19:47:07.292Z,100748.64
2023-02-09T19:49:36.445Z,100746.00
2023-02-09T19:52:05.680Z,100747.31
2023-02-09T19:54:38.052Z,100744.87
2023-02-09T19:57:06.634Z,100740.32
2023-02-09T19:59:38.288Z,100736.86
2023-02-09T20:02:06.404Z,100738.71
2023-02-09T20:04:34.872Z,100731.45
2023-02-09T20:07:03.731Z,100728.47
2023-02-09T20:09:35.596Z,100722.39
2023-02-09T20:12:03.959Z,100719.04
2023-02-09T20:14:33.514Z,100716.75
2023-02-09T20:17:02.478Z,100715.64
2023-02-09T20:19:30.946Z,100712.94
2023-02-09T20:22:00.657Z,100711.83
2023-02-09T20:24:29.546Z,100711.33
2023-02-09T20:26:57.724Z,100707.68
2023-02-09T20:29:25.895Z,100709.04
2023-02-09T20:31:54.140Z,100704.37
2023-02-09T20:34:22.088Z,100704.28
2023-02-09T20:36:50.696Z,100704.00
2023-02-09T20:39:18.679Z,100702.48
2023-02-09T20:42:06.121Z,100693.26
2023-02-09T20:44:53.646Z,100685.98
2023-02-09T20:47:21.866Z,100680.52
2023-02-09T20:49:49.964Z,100679.21
2023-02-09T20:52:18.124Z,100679.63
2023-02-09T20:54:46.173Z,100676.05
2023-02-09T20:57:14.839Z,100677.70
2023-02-09T20:59:42.858Z,100674.98
2023-02-09T21:02:15.151Z,100673.75
2023-02-09T21:04:43.751Z,100674.82
2023-02-09T21:07:12.686Z,100667.00
2023-02-09T21:09:41.347Z,100665.23
2023-02-09T21:12:09.392Z,100665.70
2023-02-09T21:14:42.235Z,100664.64
2023-02-09T21:17:15.207Z,100670.20
2023-02-09T21:19:43.564Z,100668.40
2023-02-09T21:22:11.690Z,100666.88
2023-02-09T21:24:40.089Z,100664.09
2023-02-09T21:27:08.176Z,100669.99
2023-02-09T21:29:37.649Z,100663.29
2023-02-09T21:32:06.309Z,100661.23
2023-02-09T21:34:34.339Z,100660.09
2023-02-09T21:37:02.501Z,100657.55
2023-02-09T21:39:31.595Z,100659.27
2023-02-09T21:42:18.604Z,100655.83
2023-02-09T21:44:46.680Z,100650.41
2023-02-09T21:47:14.862Z,100647.74
2023-02-09T21:49:43.088Z,100650.13
2023-02-09T21:52:11.103Z,100645.29
2023-02-09T21:54:40.040Z,100652.09
2023-02-09T21:57:08.152Z,100642.42
2023-02-09T21:59:36.182Z,100641.52
